Time;durP1;ratioP1;P1;durP2;ratioP2;P2;SDS_P1;SDS_P2;PMS_P1;PMS_P2;Temp;Humidity;BMP_temperature;BMP_pressure;BME280_temperature;BME280_humidity;BME280_pressure;Samples;Min_cycle;Max_cycle;Signal;HPM_P1;HPM_P2
2021/12/23 00:01:22;;;;;;;144.40;58.40;;;;;;;-3.73;77.34;101065.23;103204;1318;24161;-58
2021/12/23 00:03:55;;;;;;;134.80;55.00;;;;;;;-3.76;77.24;101061.60;103401;1316;23419;-57
2021/12/23 00:06:26;;;;;;;143.60;51.50;;;;;;;-3.79;77.47;101055.84;103131;1315;25550;-59
2021/12/23 00:09:00;;;;;;;131.20;48.90;;;;;;;-3.80;77.48;101058.80;103190;1315;25338;-59
2021/12/23 00:11:31;;;;;;;140.70;48.50;;;;;;;-3.82;77.50;101053.29;103284;1318;26101;-59
2021/12/23 00:14:05;;;;;;;135.70;50.20;;;;;;;-3.85;77.54;101054.19;103225;1318;22627;-59
2021/12/23 00:16:46;;;;;;;141.40;51.70;;;;;;;-3.86;77.46;101052.05;103299;1319;22606;-59
2021/12/23 00:19:34;;;;;;;131.20;48.40;;;;;;;-3.90;77.40;101053.46;103210;1318;24237;-59
2021/12/23 00:24:54;;;;;;;120.60;46.40;;;;;;;-3.96;77.53;101054.46;103286;1319;25612;-59
2021/12/23 00:27:24;;;;;;;115.50;44.90;;;;;;;-3.96;77.50;101048.21;103228;1316;23233;-60
2021/12/23 00:29:55;;;;;;;118.60;44.00;;;;;;;-3.96;77.58;101051.32;103189;1317;22574;-60
2021/12/23 00:32:26;;;;;;;111.40;44.90;;;;;;;-3.96;77.59;101048.44;103176;1312;25717;-60
2021/12/23 00:34:55;;;;;;;;;;;;;;;-3.98;77.55;101048.03;103239;1319;26526;-60
2021/12/23 00:37:26;;;;;;;105.70;41.80;;;;;;;-3.98;77.67;101049.96;103211;1317;22657;-60
2021/12/23 00:39:57;;;;;;;108.50;43.10;;;;;;;-3.97;77.85;101044.70;103206;1315;22792;-60
2021/12/23 00:42:27;;;;;;;112.90;44.20;;;;;;;-3.97;77.76;101044.93;103201;1313;24256;-60
2021/12/23 00:44:58;;;;;;;106.10;39.80;;;;;;;-3.98;77.64;101040.70;103221;1318;22897;-59
2021/12/23 00:47:30;;;;;;;115.30;41.50;;;;;;;-4.00;77.62;101040.27;103237;1317;22823;-60
2021/12/23 00:50:00;;;;;;;122.80;47.00;;;;;;;-4.01;77.61;101038.85;103288;1319;23380;-60
2021/12/23 00:52:34;;;;;;;120.40;45.90;;;;;;;-4.04;77.41;101037.32;103213;1318;22905;-60
2021/12/23 00:55:09;;;;;;;118.70;43.80;;;;;;;-4.06;77.48;101035.95;103280;1317;22617;-59
2021/12/23 00:57:41;;;;;;;117.50;45.10;;;;;;;-4.09;77.48;101037.22;103247;1318;25661;-60
2021/12/23 01:00:15;;;;;;;107.30;42.20;;;;;;;-4.12;77.37;101032.74;103165;1316;24466;-60
2021/12/23 01:02:46;;;;;;;118.70;43.40;;;;;;;-4.12;77.61;101027.13;103260;1318;22724;-59
2021/12/23 01:05:21;;;;;;;109.20;42.80;;;;;;;-4.12;77.77;101026.13;103987;1302;94697;-79
2021/12/23 01:07:52;;;;;;;111.10;40.40;;;;;;;-4.13;77.59;101025.32;104373;1312;26068;-80
2021/12/23 01:10:24;;;;;;;101.40;39.80;;;;;;;-4.15;77.54;101020.52;103858;1317;22628;-80
2021/12/23 01:12:59;;;;;;;97.00;37.90;;;;;;;-4.17;77.52;101013.71;103904;1312;22726;-80
2021/12/23 01:18:23;;;;;;;96.40;39.60;;;;;;;-4.18;77.59;101014.16;104230;1316;26141;-80
2021/12/23 01:21:03;;;;;;;114.70;44.10;;;;;;;-4.19;77.59;101015.79;104283;1312;22918;-80
2021/12/23 01:23:41;;;;;;;127.30;48.80;;;;;;;-4.18;77.52;101007.08;104234;1316;22774;-81
2021/12/23 01:26:12;;;;;;;120.10;49.70;;;;;;;-4.19;77.62;101011.56;104241;1319;22737;-80
2021/12/23 01:28:42;;;;;;;115.20;44.80;;;;;;;-4.20;77.69;101007.25;104218;1319;22846;-81
2021/12/23 01:31:11;;;;;;;;;;;;;;;-4.20;77.59;101008.98;104025;1316;212371;-80
2021/12/23 01:33:43;;;;;;;91.40;36.30;;;;;;;-4.23;77.40;101003.46;103837;1312;22711;-79
2021/12/23 01:36:14;;;;;;;93.40;36.70;;;;;;;-4.25;77.64;101000.30;104271;1317;22633;-81
2021/12/23 01:38:45;;;;;;;104.20;36.90;;;;;;;-4.25;77.51;100997.11;104313;1312;22856;-80
2021/12/23 01:41:18;;;;;;;94.10;37.70;;;;;;;-4.26;77.66;100994.30;104253;1319;24331;-81
2021/12/23 01:43:49;;;;;;;89.50;38.10;;;;;;;-4.26;77.52;100990.70;104355;1319;26171;-81
2021/12/23 01:46:22;;;;;;;99.40;41.20;;;;;;;-4.27;77.54;100986.70;104261;1317;22778;-81
2021/12/23 01:48:54;;;;;;;94.70;39.70;;;;;;;-4.30;77.56;100979.75;104340;1312;22909;-80
2021/12/23 01:51:26;;;;;;;104.80;40.10;;;;;;;-4.31;77.42;100970.99;104285;1317;22803;-81
2021/12/23 01:53:57;;;;;;;94.80;39.90;;;;;;;-4.32;77.51;100971.12;104371;1312;22902;-80
2021/12/23 01:56:28;;;;;;;102.50;43.00;;;;;;;-4.34;77.47;100964.48;104325;1315;25524;-81
2021/12/23 01:58:59;;;;;;;99.30;41.30;;;;;;;-4.35;77.49;100957.60;104261;1316;24703;-80
2021/12/23 02:01:30;;;;;;;109.30;42.00;;;;;;;-4.37;77.46;100951.09;103903;1318;23623;-81
2021/12/23 02:04:01;;;;;;;103.30;41.30;;;;;;;-4.39;77.53;100950.85;104344;1317;22645;-80
2021/12/23 02:06:30;;;;;;;;;;;;;;;-4.39;77.76;100941.27;104470;1313;22549;-80
2021/12/23 02:09:00;;;;;;;103.40;39.70;;;;;;;-4.40;77.49;100935.95;104327;1318;22605;-81
2021/12/23 02:11:30;;;;;;;;;;;;;;;-4.42;77.58;100927.81;104382;1312;22576;-80
2021/12/23 02:14:00;;;;;;;103.30;39.10;;;;;;;-4.42;77.71;100925.60;104059;1312;22742;-80
2021/12/23 02:16:29;;;;;;;;;;;;;;;-4.43;77.58;100922.02;104010;1318;22603;-80
2021/12/23 02:19:00;;;;;;;100.60;38.00;;;;;;;-4.47;77.44;100920.77;104137;1312;22841;-80
2021/12/23 02:21:30;;;;;;;94.10;37.50;;;;;;;-4.49;77.74;100914.66;104415;1312;22722;-80
2021/12/23 02:23:59;;;;;;;;;;;;;;;-4.49;77.68;100910.77;104053;1312;24179;-80
2021/12/23 02:26:30;;;;;;;97.30;37.20;;;;;;;-4.51;77.61;100906.70;104134;1317;22766;-81
2021/12/23 02:28:59;;;;;;;;;;;;;;;-4.53;77.66;100898.95;104043;1318;25300;-80
2021/12/23 02:31:31;;;;;;;99.00;36.80;;;;;;;-4.55;77.73;100893.55;104181;1313;23228;-80
2021/12/23 02:34:03;;;;;;;88.80;35.00;;;;;;;-4.56;77.69;100889.39;104486;1314;24058;-80
2021/12/23 02:36:34;;;;;;;87.10;36.30;;;;;;;-4.57;77.77;100885.26;104461;1316;25755;-80
2021/12/23 02:39:04;;;;;;;90.10;35.40;;;;;;;-4.56;77.70;100884.24;104433;1316;22765;-80
2021/12/23 02:41:41;;;;;;;95.00;37.00;;;;;;;-4.56;77.78;100882.14;104464;1312;22785;-80
2021/12/23 02:44:12;;;;;;;90.80;35.90;;;;;;;-4.55;77.86;100879.52;104396;1312;26894;-80
2021/12/23 02:46:44;;;;;;;87.80;35.90;;;;;;;-4.55;77.82;100879.68;104600;1317;24285;-80
2021/12/23 02:49:15;;;;;;;86.40;33.60;;;;;;;-4.55;77.77;100876.80;104497;1313;22712;-81
2021/12/23 02:51:46;;;;;;;88.20;35.90;;;;;;;-4.55;77.60;100867.07;104511;1313;26094;-81
2021/12/23 02:54:17;;;;;;;96.00;36.80;;;;;;;-4.55;77.76;100864.19;104489;1312;24310;-80
2021/12/23 02:56:48;;;;;;;85.60;34.70;;;;;;;-4.54;77.76;100859.22;104049;1313;22771;-80
2021/12/23 02:59:19;;;;;;;91.50;35.50;;;;;;;-4.54;77.79;100853.16;104097;1317;22808;-80
2021/12/23 03:01:50;;;;;;;90.60;34.70;;;;;;;-4.54;77.64;100849.81;104150;1313;24219;-79
2021/12/23 03:04:22;;;;;;;88.40;32.60;;;;;;;-4.54;77.75;100846.77;104114;1312;22822;-80
2021/12/23 03:06:57;;;;;;;78.60;33.10;;;;;;;-4.54;77.69;100839.54;104544;1309;24190;-80
2021/12/23 03:09:27;;;;;;;83.90;33.40;;;;;;;-4.55;77.63;100834.77;104471;1318;24262;-80
2021/12/23 03:11:58;;;;;;;84.40;34.00;;;;;;;-4.58;77.65;100836.05;104335;1312;24219;-79
2021/12/23 03:14:27;;;;;;;;;;;;;;;-4.62;77.58;100831.20;104600;1312;23155;-81
2021/12/23 03:16:58;;;;;;;82.20;32.70;;;;;;;-4.65;77.60;100834.14;104448;1318;24307;-80
2021/12/23 03:19:26;;;;;;;;;;;;;;;-4.65;77.72;100828.67;104575;1312;22563;-80
2021/12/23 03:21:59;;;;;;;83.00;31.60;;;;;;;-4.65;77.78;100826.33;104538;1312;22716;-80
2021/12/23 03:24:31;;;;;;;87.10;32.10;;;;;;;-4.66;77.93;100816.73;104130;1312;22832;-80
2021/12/23 03:27:02;;;;;;;75.40;29.80;;;;;;;-4.65;77.91;100811.62;104471;1316;22679;-80
2021/12/23 03:29:34;;;;;;;82.50;32.80;;;;;;;-4.65;77.97;100804.21;104420;1317;24233;-81
2021/12/23 03:32:07;;;;;;;74.60;29.90;;;;;;;-4.65;77.88;100804.76;104532;1314;24233;-80
2021/12/23 03:34:38;;;;;;;77.60;28.00;;;;;;;-4.65;77.91;100801.27;104365;1318;22720;-80
2021/12/23 03:37:09;;;;;;;76.80;31.00;;;;;;;-4.66;77.75;100797.14;104530;1316;25688;-80
2021/12/23 03:39:40;;;;;;;70.20;27.60;;;;;;;-4.67;77.70;100789.71;104514;1316;24294;-81
2021/12/23 03:42:11;;;;;;;73.20;26.30;;;;;;;-4.69;77.64;100786.18;104398;1316;22777;-80
2021/12/23 03:44:42;;;;;;;67.80;26.50;;;;;;;-4.69;77.65;100785.16;104055;1312;22774;-80
2021/12/23 03:47:12;;;;;;;;;;;;;;;-4.70;77.68;100790.05;104185;1312;24669;-80
2021/12/23 03:49:43;;;;;;;68.70;27.00;;;;;;;-4.72;77.79;100788.08;104454;1314;24111;-80
2021/12/23 03:52:14;;;;;;;67.30;26.30;;;;;;;-4.74;77.79;100780.94;104564;1312;24925;-80
2021/12/23 03:54:45;;;;;;;74.60;25.80;;;;;;;-4.77;77.92;100776.41;104102;1313;24243;-80
2021/12/23 03:57:14;;;;;;;;;;;;;;;-4.78;77.99;100770.86;104412;1316;23867;-80
2021/12/23 03:59:45;;;;;;;84.40;33.50;;;;;;;-4.83;77.89;100771.55;104471;1317;25744;-80
2021/12/23 04:02:14;;;;;;;;;;;;;;;-4.86;78.09;100771.27;104556;1316;23046;-80
2021/12/23 04:04:45;;;;;;;88.00;35.50;;;;;;;-4.89;78.07;100763.27;104417;1313;25521;-80
2021/12/23 04:07:14;;;;;;;;;;;;;;;-4.90;78.21;100768.77;104192;1317;22567;-80
2021/12/23 04:09:45;;;;;;;87.90;34.30;;;;;;;-4.91;78.21;100762.92;104131;1312;22858;-80
2021/12/23 04:12:16;;;;;;;85.30;34.20;;;;;;;-4.93;78.25;100753.79;104507;1318;22716;-80
2021/12/23 04:14:47;;;;;;;90.00;34.40;;;;;;;-4.95;78.26;100751.34;104583;1314;22878;-80
2021/12/23 04:17:16;;;;;;;;;;;;;;;-4.96;78.25;100747.28;104100;1318;22677;-80
2021/12/23 04:19:47;;;;;;;85.60;30.60;;;;;;;-4.96;78.27;100745.72;103906;1318;22756;-80
2021/12/23 04:22:18;;;;;;;87.80;36.30;;;;;;;-4.95;78.41;100739.91;104126;1312;22992;-80
2021/12/23 04:24:49;;;;;;;96.40;37.80;;;;;;;-4.95;78.32;100737.41;104476;1318;25573;-80
2021/12/23 04:27:20;;;;;;;96.10;36.50;;;;;;;-4.95;78.41;100733.77;104545;1318;25617;-80
2021/12/23 04:29:52;;;;;;;105.30;40.90;;;;;;;-4.95;78.23;100729.88;104458;1312;26074;-81
2021/12/23 04:32:23;;;;;;;107.10;40.80;;;;;;;-4.96;78.40;100725.02;104504;1317;22813;-81
2021/12/23 04:34:54;;;;;;;106.10;43.60;;;;;;;-4.95;78.32;100723.95;104423;1319;22666;-81
2021/12/23 04:37:25;;;;;;;104.30;42.40;;;;;;;-4.93;78.33;100718.31;104398;1312;23616;-80
2021/12/23 04:39:56;;;;;;;125.30;49.00;;;;;;;-4.90;78.31;100714.62;103982;1317;22565;-80
2021/12/23 04:42:28;;;;;;;136.80;51.30;;;;;;;-4.89;78.24;100713.01;104042;1317;26579;-80
2021/12/23 04:44:59;;;;;;;131.60;48.40;;;;;;;-4.88;78.21;100706.09;104595;1318;22720;-80
2021/12/23 04:47:30;;;;;;;147.30;56.40;;;;;;;-4.87;78.23;100701.13;104606;1318;22811;-80
2021/12/23 04:49:59;;;;;;;;;;;;;;;-4.87;78.09;100698.96;104514;1319;23287;-80
2021/12/23 04:52:31;;;;;;;135.50;54.20;;;;;;;-4.86;78.14;100697.11;104224;1312;22838;-80
2021/12/23 04:55:02;;;;;;;128.60;50.50;;;;;;;-4.85;78.11;100691.75;104314;1316;25890;-80
2021/12/23 04:57:32;;;;;;;143.00;55.90;;;;;;;-4.84;78.13;100686.39;104243;1318;22901;-80
2021/12/23 05:00:01;;;;;;;;;;;;;;;-4.84;77.93;100681.73;104306;1314;25388;-80
2021/12/23 05:02:32;;;;;;;143.10;53.10;;;;;;;-4.85;78.00;100680.70;104191;1316;22736;-80
2021/12/23 05:05:03;;;;;;;114.80;47.70;;;;;;;-4.86;78.17;100680.92;104125;1319;24308;-80
2021/12/23 05:07:33;;;;;;;100.10;42.20;;;;;;;-4.84;78.10;100670.98;104512;1318;22714;-80
2021/12/23 05:10:05;;;;;;;98.30;42.00;;;;;;;-4.86;78.18;100664.20;104508;1317;22984;-80
2021/12/23 05:12:42;;;;;;;94.40;38.90;;;;;;;-4.86;78.13;100659.99;104133;1318;25802;-81
2021/12/23 05:15:14;;;;;;;99.80;37.70;;;;;;;-4.86;77.99;100647.84;104309;1313;23670;-80
2021/12/23 05:17:45;;;;;;;95.50;36.20;;;;;;;-4.87;78.08;100649.55;104110;1312;23971;-80
2021/12/23 05:20:18;;;;;;;90.30;35.50;;;;;;;-4.87;78.22;100645.57;104233;1319;24302;-80
2021/12/23 05:22:49;;;;;;;94.10;36.00;;;;;;;-4.89;78.02;100645.23;104432;1319;22792;-80
2021/12/23 05:25:21;;;;;;;84.00;35.00;;;;;;;-4.91;78.13;100646.30;104470;1318;25941;-78
2021/12/23 05:27:54;;;;;;;82.90;34.00;;;;;;;-4.94;78.08;100643.14;104361;1318;22726;-80
2021/12/23 05:30:27;;;;;;;87.30;34.50;;;;;;;-4.95;78.17;100640.56;104656;1317;23606;-79
2021/12/23 05:32:57;;;;;;;79.70;34.20;;;;;;;-4.96;78.32;100638.52;104240;1314;22749;-79
2021/12/23 05:35:28;;;;;;;79.40;31.80;;;;;;;-4.95;78.30;100630.85;104156;1312;25403;-79
2021/12/23 05:38:00;;;;;;;80.00;31.10;;;;;;;-4.95;78.25;100633.02;104512;1318;22707;-79
2021/12/23 05:40:32;;;;;;;84.10;33.60;;;;;;;-4.97;78.29;100638.81;104658;1317;22743;-81
2021/12/23 05:43:05;;;;;;;78.20;29.90;;;;;;;-5.00;78.36;100628.97;104625;1318;25782;-80
2021/12/23 05:45:36;;;;;;;90.00;35.00;;;;;;;-5.01;78.49;100626.07;104576;1318;22790;-80
2021/12/23 05:48:07;;;;;;;96.80;34.90;;;;;;;-5.03;78.48;100619.89;104620;1316;23421;-79
2021/12/23 05:50:38;;;;;;;84.60;35.40;;;;;;;-5.01;78.61;100623.35;104141;1318;24248;-79
2021/12/23 05:53:09;;;;;;;85.10;34.80;;;;;;;-5.00;78.66;100614.90;104113;1316;22825;-80
2021/12/23 05:55:40;;;;;;;83.00;35.50;;;;;;;-4.99;78.72;100614.44;105192;1318;22897;-79
2021/12/23 05:58:12;;;;;;;99.00;41.90;;;;;;;-4.97;78.67;100601.71;105677;1313;22780;-78
2021/12/23 06:00:42;;;;;;;92.10;41.20;;;;;;;-4.94;78.73;100598.73;105376;1316;22764;-80
2021/12/23 06:03:13;;;;;;;96.40;41.40;;;;;;;-4.91;78.87;100590.98;105177;1313;26113;-79
2021/12/23 06:05:46;;;;;;;94.00;39.20;;;;;;;-4.90;78.70;100591.77;104115;1317;22745;-79
2021/12/23 06:08:16;;;;;;;85.60;34.70;;;;;;;-4.89;78.63;100592.10;104198;1319;22583;-79
2021/12/23 06:10:45;;;;;;;;;;;;;;;-4.90;78.63;100592.33;104110;1313;22636;-79
2021/12/23 06:13:16;;;;;;;80.80;34.70;;;;;;;-4.90;78.72;100585.08;104444;1317;22790;-79
2021/12/23 06:15:45;;;;;;;;;;;;;;;-4.90;78.79;100584.63;104651;1317;22605;-79
2021/12/23 06:18:16;;;;;;;92.20;36.50;;;;;;;-4.89;78.73;100582.77;104409;1316;22574;-79
2021/12/23 06:20:48;;;;;;;82.60;34.20;;;;;;;-4.88;78.78;100582.08;104365;1318;24267;-79
2021/12/23 06:23:19;;;;;;;77.20;33.40;;;;;;;-4.89;78.70;100578.17;104282;1313;27818;-78
2021/12/23 06:25:49;;;;;;;82.10;31.20;;;;;;;-4.90;78.77;100578.79;104296;1316;22592;-79
2021/12/23 06:28:20;;;;;;;70.70;30.50;;;;;;;-4.89;78.85;100576.63;104153;1316;22748;-79
2021/12/23 06:30:51;;;;;;;71.50;26.90;;;;;;;-4.88;78.98;100577.64;104719;1316;22837;-78
2021/12/23 06:33:22;;;;;;;72.10;28.10;;;;;;;-4.88;78.90;100580.83;104182;1316;24250;-78
2021/12/23 06:35:53;;;;;;;68.60;27.80;;;;;;;-4.87;78.89;100579.85;104090;1315;22699;-77
2021/12/23 06:38:22;;;;;;;;;;;;;;;-4.85;78.81;100573.40;103904;1316;22813;-78
2021/12/23 06:40:52;;;;;;;160.50;74.90;;;;;;;-4.84;78.99;100568.29;104018;1318;23596;-78
2021/12/23 06:43:21;;;;;;;;;;;;;;;-4.83;78.90;100566.42;104321;1318;25307;-79
2021/12/23 06:45:52;;;;;;;125.00;51.50;;;;;;;-4.81;78.94;100569.27;104251;1312;22792;-78
2021/12/23 06:48:23;;;;;;;110.00;46.70;;;;;;;-4.80;79.04;100563.22;104246;1316;25954;-79
2021/12/23 06:50:54;;;;;;;;;;;;;;;-4.78;79.08;100559.13;104283;1317;22624;-78
2021/12/23 06:53:26;;;;;;;85.90;37.40;;;;;;;-4.76;79.11;100556.89;104214;1317;22824;-79
2021/12/23 06:55:56;;;;;;;70.80;30.60;;;;;;;-4.73;79.11;100550.47;104126;1319;22729;-78
2021/12/23 06:58:25;;;;;;;;;;;;;;;-4.69;79.27;100550.69;104201;1319;22545;-78
2021/12/23 07:00:57;;;;;;;73.40;26.70;;;;;;;-4.66;79.03;100549.79;104215;1318;22763;-78
2021/12/23 07:03:41;;;;;;;71.30;28.70;;;;;;;-4.64;79.19;100548.64;104156;1318;22707;-78
2021/12/23 07:06:18;;;;;;;74.50;29.00;;;;;;;-4.61;79.21;100543.15;104140;1317;22731;-79
2021/12/23 07:08:48;;;;;;;95.60;41.60;;;;;;;-4.59;79.22;100539.22;104285;1317;23092;-79
2021/12/23 07:11:19;;;;;;;85.00;35.30;;;;;;;-4.56;79.12;100533.80;104644;1319;22841;-80
2021/12/23 07:13:50;;;;;;;91.60;42.90;;;;;;;-4.53;79.20;100527.69;104052;1316;23535;-78
2021/12/23 07:16:21;;;;;;;87.40;36.20;;;;;;;-4.51;79.31;100526.39;104014;1317;22794;-78
2021/12/23 07:18:52;;;;;;;85.30;37.00;;;;;;;-4.50;79.22;100526.09;104155;1316;22641;-78
2021/12/23 07:21:24;;;;;;;74.90;30.60;;;;;;;-4.48;79.33;100519.88;104656;1318;25688;-79
2021/12/23 07:23:55;;;;;;;69.40;29.20;;;;;;;-4.44;79.37;100518.68;104457;1318;22726;-80
2021/12/23 07:26:25;;;;;;;73.80;32.50;;;;;;;-4.37;79.36;100517.83;104448;1318;22523;-80
2021/12/23 07:28:55;;;;;;;;;;;;;;;-4.33;79.41;100517.41;104501;1318;22571;-78
2021/12/23 07:31:26;;;;;;;89.30;35.00;;;;;;;-4.30;79.40;100515.36;104387;1318;22652;-80
2021/12/23 07:33:57;;;;;;;74.60;28.50;;;;;;;-4.25;79.58;100510.19;104334;1318;22653;-81
2021/12/23 07:36:29;;;;;;;73.60;27.50;;;;;;;-4.20;79.50;100510.17;104680;1319;24267;-80
2021/12/23 07:39:01;;;;;;;61.70;24.40;;;;;;;-4.15;79.52;100502.20;104501;1319;22777;-81
2021/12/23 07:41:33;;;;;;;76.00;33.20;;;;;;;-4.11;79.40;100506.05;104539;1319;22895;-81
2021/12/23 07:44:06;;;;;;;72.30;32.10;;;;;;;-4.05;79.62;100503.54;104459;1319;23642;-80
2021/12/23 07:46:40;;;;;;;83.00;38.80;;;;;;;-4.00;79.62;100498.69;104451;1319;22956;-80
2021/12/23 07:49:10;;;;;;;83.80;37.10;;;;;;;-3.95;79.58;100482.44;104408;1316;24347;-81
2021/12/23 07:51:42;;;;;;;79.40;33.70;;;;;;;-3.91;79.53;100476.73;104537;1316;24260;-80
2021/12/23 07:54:13;;;;;;;76.10;32.30;;;;;;;-3.87;79.67;100479.32;104404;1313;23677;-79
2021/12/23 07:56:44;;;;;;;77.40;33.70;;;;;;;-3.82;79.64;100478.58;104371;1316;22843;-79
2021/12/23 07:59:15;;;;;;;66.80;32.90;;;;;;;-3.78;79.69;100480.27;104172;1316;22597;-80
2021/12/23 08:01:46;;;;;;;73.30;34.50;;;;;;;-3.73;79.70;100486.30;104220;1319;22698;-81
2021/12/23 08:04:17;;;;;;;80.80;34.90;;;;;;;-3.69;79.63;100481.90;104474;1313;24451;-81
2021/12/23 08:06:53;;;;;;;61.80;26.60;;;;;;;-3.64;79.77;100473.52;104515;1317;22667;-79
2021/12/23 08:09:26;;;;;;;65.50;29.80;;;;;;;-3.59;79.79;100474.58;104346;1313;22570;-80
2021/12/23 08:11:59;;;;;;;87.40;34.70;;;;;;;-3.54;79.70;100464.63;104553;1317;22774;-81
2021/12/23 08:14:29;;;;;;;89.00;34.00;;;;;;;-3.49;79.76;100460.61;104528;1317;22648;-82
2021/12/23 08:16:59;;;;;;;;;;;;;;;-3.45;79.77;100461.59;104428;1318;22558;-81
2021/12/23 08:19:29;;;;;;;74.30;26.40;;;;;;;-3.40;79.85;100462.86;104407;1315;22665;-81
2021/12/23 08:22:00;;;;;;;58.00;22.80;;;;;;;-3.36;79.81;100448.92;104370;1318;25505;-81
2021/12/23 08:24:31;;;;;;;67.70;25.50;;;;;;;-3.32;79.75;100449.27;104406;1315;26034;-82
2021/12/23 08:27:04;;;;;;;64.60;25.20;;;;;;;-3.27;79.82;100439.94;104539;1319;22688;-81
2021/12/23 08:29:37;;;;;;;60.80;23.50;;;;;;;-3.22;79.89;100429.52;104448;1318;22629;-81
2021/12/23 08:32:10;;;;;;;69.50;26.20;;;;;;;-3.17;79.92;100428.28;104685;1315;22578;-82
2021/12/23 08:34:41;;;;;;;64.70;26.50;;;;;;;-3.12;79.88;100421.45;104430;1317;22743;-81
2021/12/23 08:37:12;;;;;;;59.10;25.80;;;;;;;-3.06;79.81;100421.79;104524;1313;23451;-81
2021/12/23 08:39:44;;;;;;;59.80;24.90;;;;;;;-3.01;79.86;100416.36;104564;1314;22814;-81
2021/12/23 08:42:15;;;;;;;67.20;24.90;;;;;;;-2.96;79.80;100423.40;104503;1312;22754;-81
2021/12/23 08:44:46;;;;;;;67.40;26.50;;;;;;;-2.91;79.65;100422.65;104431;1312;22610;-81
2021/12/23 08:47:17;;;;;;;61.80;25.90;;;;;;;-2.86;79.81;100426.95;104467;1313;24311;-81
2021/12/23 08:49:48;;;;;;;69.40;30.40;;;;;;;-2.81;79.75;100424.87;104359;1312;24345;-81
2021/12/23 08:52:19;;;;;;;63.10;27.90;;;;;;;-2.75;79.67;100424.59;104583;1312;22608;-82
2021/12/23 08:54:51;;;;;;;59.40;25.60;;;;;;;-2.70;79.69;100417.27;104529;1317;22912;-82
2021/12/23 08:57:22;;;;;;;53.30;23.30;;;;;;;-2.65;79.67;100411.02;104590;1313;22782;-83
2021/12/23 08:59:53;;;;;;;53.80;24.40;;;;;;;-2.61;79.68;100404.80;104461;1314;22785;-82
2021/12/23 09:02:27;;;;;;;62.60;27.40;;;;;;;-2.57;79.55;100398.56;104418;1312;23275;-83
2021/12/23 09:04:57;;;;;;;54.60;23.90;;;;;;;-2.53;79.55;100389.98;104435;1318;22725;-82
2021/12/23 09:07:28;;;;;;;51.30;22.00;;;;;;;-2.49;79.58;100384.05;104357;1313;22832;-81
2021/12/23 09:09:57;;;;;;;;;;;;;;;-2.46;79.51;100372.03;104595;1317;25248;-82
2021/12/23 09:12:29;;;;;;;53.50;22.20;;;;;;;-2.43;79.41;100371.57;104534;1316;25598;-81
2021/12/23 09:15:00;;;;;;;54.90;23.00;;;;;;;-2.41;79.49;100361.80;104406;1314;22695;-81
2021/12/23 09:17:31;;;;;;;61.30;23.80;;;;;;;-2.38;79.54;100355.95;104561;1312;22765;-82
2021/12/23 09:20:02;;;;;;;56.50;25.20;;;;;;;-2.36;79.51;100352.91;104442;1318;24244;-82
2021/12/23 09:22:33;;;;;;;61.20;26.00;;;;;;;-2.34;79.42;100347.05;104439;1319;22626;-82
2021/12/23 09:25:10;;;;;;;60.70;24.50;;;;;;;-2.31;79.60;100346.74;104530;1313;24247;-82
2021/12/23 09:27:53;;;;;;;65.40;24.50;;;;;;;-2.28;79.49;100347.52;104350;1317;22905;-82
2021/12/23 09:33:13;;;;;;;63.70;23.40;;;;;;;-2.26;79.44;100340.10;104534;1312;22709;-83
2021/12/23 09:35:44;;;;;;;58.10;24.00;;;;;;;-2.24;79.64;100330.48;104485;1317;22685;-82
2021/12/23 09:38:16;;;;;;;60.80;24.50;;;;;;;-2.21;79.57;100326.36;104767;1313;22605;-84
2021/12/23 09:40:48;;;;;;;73.30;27.70;;;;;;;-2.18;79.51;100322.21;104819;1318;22848;-84
2021/12/23 09:43:21;;;;;;;68.90;27.00;;;;;;;-2.15;79.49;100318.92;105152;1312;22684;-83
2021/12/23 09:45:54;;;;;;;64.10;26.50;;;;;;;-2.11;79.56;100312.04;105093;1314;24309;-84
2021/12/23 09:48:27;;;;;;;56.50;22.60;;;;;;;-2.07;79.52;100303.77;105379;1312;24213;-84
2021/12/23 09:51:02;;;;;;;61.10;25.50;;;;;;;-2.03;79.43;100295.86;105105;1312;22655;-83
2021/12/23 09:53:34;;;;;;;62.60;24.60;;;;;;;-2.01;79.43;100285.15;105256;1312;25586;-82
2021/12/23 09:56:07;;;;;;;54.20;23.50;;;;;;;-1.99;79.39;100279.37;105555;1312;23099;-85
2021/12/23 09:58:39;;;;;;;63.60;24.60;;;;;;;-1.96;79.32;100270.14;106009;1317;22657;-82
2021/12/23 10:01:10;;;;;;;63.40;24.90;;;;;;;-1.95;79.27;100272.48;105941;1317;22644;-82
2021/12/23 10:03:41;;;;;;;67.60;27.30;;;;;;;-1.92;79.34;100268.64;105819;1312;22754;-82
2021/12/23 10:06:10;;;;;;;;;;;;;;;-1.90;79.18;100261.83;105829;1312;23609;-82
2021/12/23 10:08:44;;;;;;;65.70;26.80;;;;;;;-1.89;79.16;100256.75;105738;1312;22706;-84
2021/12/23 10:11:23;;;;;;;62.20;24.40;;;;;;;-1.86;79.14;100247.90;105783;1316;22735;-82
2021/12/23 10:31:29;;;;;;;64.30;25.00;;;;;;;-1.66;78.83;100231.11;103838;1329;23484;-81
2021/12/23 10:37:13;;;;;;;53.60;21.70;;;;;;;-1.54;78.88;100209.55;103925;1327;22665;-82
2021/12/23 10:39:48;;;;;;;62.40;23.80;;;;;;;-1.53;78.43;100205.55;103848;1328;23209;-82
2021/12/23 10:42:21;;;;;;;62.30;25.90;;;;;;;-1.51;78.54;100201.88;103944;1329;22761;-83
2021/12/23 10:44:56;;;;;;;75.30;30.30;;;;;;;-1.48;78.68;100192.79;104102;1324;23611;-82
2021/12/23 10:47:47;;;;;;;65.40;27.50;;;;;;;-1.45;78.73;100181.59;104312;1327;22743;-82
2021/12/23 10:50:24;;;;;;;62.00;26.30;;;;;;;-1.42;78.74;100173.05;104213;1324;23730;-82
2021/12/23 10:53:01;;;;;;;69.60;29.60;;;;;;;-1.38;78.60;100158.00;104073;1327;22845;-82
2021/12/23 10:58:22;;;;;;;67.90;26.70;;;;;;;-1.34;78.47;100151.71;104397;1326;22595;-83
2021/12/23 11:00:56;;;;;;;65.60;25.60;;;;;;;-1.32;78.33;100136.60;104533;1328;22895;-83
2021/12/23 11:03:32;;;;;;;67.10;27.30;;;;;;;-1.30;78.35;100133.38;104828;1324;24237;-82
2021/12/23 11:06:13;;;;;;;57.20;22.80;;;;;;;-1.26;78.37;100132.73;105170;1316;22807;-83
2021/12/23 11:08:53;;;;;;;65.50;25.50;;;;;;;-1.24;78.22;100129.89;105041;1313;22721;-84
2021/12/23 11:11:48;;;;;;;64.30;24.20;;;;;;;-1.20;78.13;100121.89;105179;1312;22685;-84
2021/12/23 11:40:03;;;;;;;57.50;22.70;;;;;;;-0.83;78.06;100065.75;103908;1322;24219;-81
2021/12/23 11:42:50;;;;;;;53.30;22.60;;;;;;;-0.79;78.16;100055.38;103945;1318;25574;-80
2021/12/23 11:45:20;;;;;;;51.40;19.90;;;;;;;-0.76;77.78;100050.88;103946;1320;22797;-80
2021/12/23 11:47:53;;;;;;;54.30;22.20;;;;;;;-0.71;77.94;100040.11;103951;1318;23287;-79
2021/12/23 11:50:31;;;;;;;50.90;21.60;;;;;;;-0.66;78.05;100037.14;103447;1322;24037;-79
2021/12/23 11:53:03;;;;;;;45.20;19.10;;;;;;;-0.61;77.94;100029.58;103595;1325;22594;-80
2021/12/23 11:55:34;;;;;;;52.40;20.50;;;;;;;-0.58;77.52;100017.23;103634;1323;25467;-80
2021/12/23 11:58:05;;;;;;;50.20;20.80;;;;;;;-0.55;77.49;100011.09;103597;1324;24248;-81
2021/12/23 12:00:42;;;;;;;47.10;19.50;;;;;;;-0.50;77.22;100009.40;103601;1316;26119;-80
2021/12/23 12:03:14;;;;;;;45.00;17.60;;;;;;;-0.45;77.05;99997.66;103681;1322;23136;-81
2021/12/23 12:05:45;;;;;;;49.70;17.80;;;;;;;-0.42;76.77;99989.47;104072;1316;24159;-80
2021/12/23 12:08:24;;;;;;;44.20;17.70;;;;;;;-0.41;76.74;99970.65;104028;1317;22671;-79
2021/12/23 12:11:16;;;;;;;47.10;20.00;;;;;;;-0.39;76.57;99970.77;104421;1312;24308;-79
2021/12/23 12:13:48;;;;;;;47.50;20.30;;;;;;;-0.37;76.75;99964.86;104694;1317;24289;-79
2021/12/23 12:16:35;;;;;;;44.60;20.00;;;;;;;-0.34;76.61;99960.85;104476;1312;26088;-80
2021/12/23 12:19:10;;;;;;;42.30;17.70;;;;;;;-0.31;76.72;99958.52;104554;1312;24358;-80
2021/12/23 12:21:46;;;;;;;47.50;21.80;;;;;;;-0.30;76.49;99957.73;104285;1312;24697;-77
2021/12/23 12:24:20;;;;;;;42.10;19.40;;;;;;;-0.29;76.48;99958.26;103847;1314;25691;-77
2021/12/23 12:26:58;;;;;;;45.40;19.40;;;;;;;-0.25;76.46;99959.64;103855;1312;24234;-77